sensor_id;sensor_type;location;lat;lon;timestamp;temperature;humidity
2112;DHT22;1062;52.538;13.400;2024-02-26T00:00:30;4.80;99.90
2112;DHT22;1062;52.538;13.400;2024-02-26T00:02:56;4.70;99.90
2112;DHT22;1062;52.538;13.400;2024-02-26T00:05:22;4.60;99.90
2112;DHT22;1062;52.538;13.400;2024-02-26T00:07:47;4.60;99.90
2112;DHT22;1062;52.538;13.400;2024-02-26T00:10:14;4.50;99.90
2112;DHT22;1062;52.538;13.400;2024-02-26T00:12:40;4.40;99.90
2112;DHT22;1062;52.538;13.400;2024-02-26T00:15:09;4.40;99.90
2112;DHT22;1062;52.538;13.400;2024-02-26T00:17:35;4.40;99.90
2112;DHT22;1062;52.538;13.400;2024-02-26T00:20:02;4.40;99.90
2112;DHT22;1062;52.538;13.400;2024-02-26T00:22:30;4.30;99.90
2112;DHT22;1062;52.538;13.400;2024-02-26T00:24:55;4.30;99.90
2112;DHT22;1062;52.538;13.400;2024-02-26T00:27:21;4.30;99.90
2112;DHT22;1062;52.538;13.400;2024-02-26T00:29:47;4.40;99.90
2112;DHT22;1062;52.538;13.400;2024-02-26T00:32:12;4.40;99.90
2112;DHT22;1062;52.538;13.400;2024-02-26T00:34:38;4.30;99.90
2112;DHT22;1062;52.538;13.400;2024-02-26T00:37:03;4.30;99.90
2112;DHT22;1062;52.538;13.400;2024-02-26T00:39:29;4.20;99.90
2112;DHT22;1062;52.538;13.400;2024-02-26T00:41:54;4.20;99.90
2112;DHT22;1062;52.538;13.400;2024-02-26T00:44:20;4.20;99.90
2112;DHT22;1062;52.538;13.400;2024-02-26T00:46:46;4.20;99.90
2112;DHT22;1062;52.538;13.400;2024-02-26T00:49:11;4.10;99.90
2112;DHT22;1062;52.538;13.400;2024-02-26T00:51:37;4.10;99.90
2112;DHT22;1062;52.538;13.400;2024-02-26T00:54:02;4.10;99.90
2112;DHT22;1062;52.538;13.400;2024-02-26T00:56:28;4.20;99.90
2112;DHT22;1062;52.538;13.400;2024-02-26T00:58:54;4.20;99.90
2112;DHT22;1062;52.538;13.400;2024-02-26T01:01:19;4.20;99.90
2112;DHT22;1062;52.538;13.400;2024-02-26T01:03:45;4.10;99.90
2112;DHT22;1062;52.538;13.400;2024-02-26T01:06:11;4.10;99.90
2112;DHT22;1062;52.538;13.400;2024-02-26T01:08:36;4.10;99.90
2112;DHT22;1062;52.538;13.400;2024-02-26T01:11:03;4.10;99.90
2112;DHT22;1062;52.538;13.400;2024-02-26T01:13:29;4.00;99.90
2112;DHT22;1062;52.538;13.400;2024-02-26T01:15:54;4.00;99.90
2112;DHT22;1062;52.538;13.400;2024-02-26T01:18:20;4.00;99.90
2112;DHT22;1062;52.538;13.400;2024-02-26T01:20:46;3.90;99.90
2112;DHT22;1062;52.538;13.400;2024-02-26T01:23:12;4.00;99.90
2112;DHT22;1062;52.538;13.400;2024-02-26T01:25:38;3.90;99.90
2112;DHT22;1062;52.538;13.400;2024-02-26T01:28:04;3.90;99.90
2112;DHT22;1062;52.538;13.400;2024-02-26T01:30:31;3.90;99.90
2112;DHT22;1062;52.538;13.400;2024-02-26T01:32:56;3.80;99.90
2112;DHT22;1062;52.538;13.400;2024-02-26T01:35:22;3.80;99.90
2112;DHT22;1062;52.538;13.400;2024-02-26T01:37:48;3.80;99.90
2112;DHT22;1062;52.538;13.400;2024-02-26T01:40:14;3.70;99.90
2112;DHT22;1062;52.538;13.400;2024-02-26T01:42:43;3.70;99.90
2112;DHT22;1062;52.538;13.400;2024-02-26T01:45:14;3.70;99.90
2112;DHT22;1062;52.538;13.400;2024-02-26T01:47:41;3.70;99.90
2112;DHT22;1062;52.538;13.400;2024-02-26T01:50:08;3.80;99.90
2112;DHT22;1062;52.538;13.400;2024-02-26T01:52:34;3.80;99.90
2112;DHT22;1062;52.538;13.400;2024-02-26T01:55:01;3.70;99.90
2112;DHT22;1062;52.538;13.400;2024-02-26T01:57:27;3.70;99.90
2112;DHT22;1062;52.538;13.400;2024-02-26T01:59:54;3.60;99.90
2112;DHT22;1062;52.538;13.400;2024-02-26T02:02:19;3.60;99.90
2112;DHT22;1062;52.538;13.400;2024-02-26T02:04:45;3.60;99.90
2112;DHT22;1062;52.538;13.400;2024-02-26T02:07:11;3.60;99.90
2112;DHT22;1062;52.538;13.400;2024-02-26T02:09:37;3.60;99.90
2112;DHT22;1062;52.538;13.400;2024-02-26T02:12:03;3.60;99.90
2112;DHT22;1062;52.538;13.400;2024-02-26T02:14:29;3.50;99.90
2112;DHT22;1062;52.538;13.400;2024-02-26T02:16:55;3.50;99.90
2112;DHT22;1062;52.538;13.400;2024-02-26T02:19:20;3.50;99.90
2112;DHT22;1062;52.538;13.400;2024-02-26T02:21:46;3.60;99.90
2112;DHT22;1062;52.538;13.400;2024-02-26T02:24:11;3.50;99.90
2112;DHT22;1062;52.538;13.400;2024-02-26T02:26:37;3.60;99.90
2112;DHT22;1062;52.538;13.400;2024-02-26T02:29:03;3.50;99.90
2112;DHT22;1062;52.538;13.400;2024-02-26T02:31:29;3.50;99.90
2112;DHT22;1062;52.538;13.400;2024-02-26T02:33:54;3.40;99.90
2112;DHT22;1062;52.538;13.400;2024-02-26T02:36:20;3.40;99.90
2112;DHT22;1062;52.538;13.400;2024-02-26T02:38:49;3.50;99.90
2112;DHT22;1062;52.538;13.400;2024-02-26T02:41:16;3.50;99.90
2112;DHT22;1062;52.538;13.400;2024-02-26T02:43:41;3.50;99.90
2112;DHT22;1062;52.538;13.400;2024-02-26T02:46:07;3.50;99.90
2112;DHT22;1062;52.538;13.400;2024-02-26T02:48:32;3.50;99.90
2112;DHT22;1062;52.538;13.400;2024-02-26T02:50:58;3.50;99.90
2112;DHT22;1062;52.538;13.400;2024-02-26T02:53:24;3.60;99.90
2112;DHT22;1062;52.538;13.400;2024-02-26T02:55:49;3.60;99.90
2112;DHT22;1062;52.538;13.400;2024-02-26T02:58:15;3.60;99.90
2112;DHT22;1062;52.538;13.400;2024-02-26T03:00:40;3.60;99.90
2112;DHT22;1062;52.538;13.400;2024-02-26T03:03:06;3.60;99.90
2112;DHT22;1062;52.538;13.400;2024-02-26T03:05:32;3.60;99.90
2112;DHT22;1062;52.538;13.400;2024-02-26T03:07:57;3.50;99.90
2112;DHT22;1062;52.538;13.400;2024-02-26T03:10:23;3.40;99.90
2112;DHT22;1062;52.538;13.400;2024-02-26T03:12:49;3.50;99.90
2112;DHT22;1062;52.538;13.400;2024-02-26T03:15:15;3.50;99.90
2112;DHT22;1062;52.538;13.400;2024-02-26T03:17:41;3.50;99.90
2112;DHT22;1062;52.538;13.400;2024-02-26T03:20:07;3.50;99.90
2112;DHT22;1062;52.538;13.400;2024-02-26T03:22:34;3.50;99.90
2112;DHT22;1062;52.538;13.400;2024-02-26T03:24:59;3.40;99.90
2112;DHT22;1062;52.538;13.400;2024-02-26T03:27:25;3.40;99.90
2112;DHT22;1062;52.538;13.400;2024-02-26T03:29:50;3.40;99.90
2112;DHT22;1062;52.538;13.400;2024-02-26T03:32:16;3.40;99.90
2112;DHT22;1062;52.538;13.400;2024-02-26T03:34:42;3.30;99.90
2112;DHT22;1062;52.538;13.400;2024-02-26T03:37:07;3.30;99.90
2112;DHT22;1062;52.538;13.400;2024-02-26T03:39:35;3.40;99.90
2112;DHT22;1062;52.538;13.400;2024-02-26T03:42:01;3.30;99.90
2112;DHT22;1062;52.538;13.400;2024-02-26T03:44:27;3.30;99.90
2112;DHT22;1062;52.538;13.400;2024-02-26T03:46:53;3.20;99.90
2112;DHT22;1062;52.538;13.400;2024-02-26T03:49:18;3.20;99.90
2112;DHT22;1062;52.538;13.400;2024-02-26T03:51:44;3.20;99.90
2112;DHT22;1062;52.538;13.400;2024-02-26T03:54:10;3.20;99.90
2112;DHT22;1062;52.538;13.400;2024-02-26T03:56:35;3.20;99.90
2112;DHT22;1062;52.538;13.400;2024-02-26T03:59:01;3.10;99.90
2112;DHT22;1062;52.538;13.400;2024-02-26T04:01:27;3.10;99.90
2112;DHT22;1062;52.538;13.400;2024-02-26T04:03:54;3.10;99.90
2112;DHT22;1062;52.538;13.400;2024-02-26T04:06:19;3.20;99.90
2112;DHT22;1062;52.538;13.400;2024-02-26T04:08:46;3.10;99.90
2112;DHT22;1062;52.538;13.400;2024-02-26T04:11:12;3.10;99.90
2112;DHT22;1062;52.538;13.400;2024-02-26T04:13:38;3.10;99.90
2112;DHT22;1062;52.538;13.400;2024-02-26T04:16:06;3.10;99.90
2112;DHT22;1062;52.538;13.400;2024-02-26T04:18:32;3.00;99.90
2112;DHT22;1062;52.538;13.400;2024-02-26T04:20:58;3.00;99.90
2112;DHT22;1062;52.538;13.400;2024-02-26T04:23:24;2.90;99.90
2112;DHT22;1062;52.538;13.400;2024-02-26T04:25:50;2.90;99.90
2112;DHT22;1062;52.538;13.400;2024-02-26T04:28:16;2.90;99.90
2112;DHT22;1062;52.538;13.400;2024-02-26T04:30:42;3.00;99.90
2112;DHT22;1062;52.538;13.400;2024-02-26T04:33:07;3.00;99.90
2112;DHT22;1062;52.538;13.400;2024-02-26T04:35:33;2.90;99.90
2112;DHT22;1062;52.538;13.400;2024-02-26T04:38:00;2.90;99.90
2112;DHT22;1062;52.538;13.400;2024-02-26T04:40:26;2.90;99.90
2112;DHT22;1062;52.538;13.400;2024-02-26T04:42:52;2.90;99.90
2112;DHT22;1062;52.538;13.400;2024-02-26T04:45:17;2.90;99.90
2112;DHT22;1062;52.538;13.400;2024-02-26T04:47:43;2.90;99.90
2112;DHT22;1062;52.538;13.400;2024-02-26T04:50:09;2.90;99.90
2112;DHT22;1062;52.538;13.400;2024-02-26T04:52:34;2.80;99.90
2112;DHT22;1062;52.538;13.400;2024-02-26T04:55:01;2.80;99.90
2112;DHT22;1062;52.538;13.400;2024-02-26T04:57:27;2.80;99.90
2112;DHT22;1062;52.538;13.400;2024-02-26T04:59:53;2.90;99.90
2112;DHT22;1062;52.538;13.400;2024-02-26T05:02:19;2.90;99.90
2112;DHT22;1062;52.538;13.400;2024-02-26T05:04:44;2.90;99.90
2112;DHT22;1062;52.538;13.400;2024-02-26T05:07:10;2.90;99.90
2112;DHT22;1062;52.538;13.400;2024-02-26T05:09:35;2.90;99.90
2112;DHT22;1062;52.538;13.400;2024-02-26T05:12:01;2.90;99.90
2112;DHT22;1062;52.538;13.400;2024-02-26T05:14:27;2.90;99.90
2112;DHT22;1062;52.538;13.400;2024-02-26T05:16:53;2.90;99.90
2112;DHT22;1062;52.538;13.400;2024-02-26T05:19:18;2.90;99.90
2112;DHT22;1062;52.538;13.400;2024-02-26T05:21:44;2.90;99.90
2112;DHT22;1062;52.538;13.400;2024-02-26T05:24:10;2.90;99.90
2112;DHT22;1062;52.538;13.400;2024-02-26T05:26:35;2.90;99.90
2112;DHT22;1062;52.538;13.400;2024-02-26T05:29:01;2.90;99.90
2112;DHT22;1062;52.538;13.400;2024-02-26T05:31:27;2.90;99.90
2112;DHT22;1062;52.538;13.400;2024-02-26T05:33:54;2.80;99.90
2112;DHT22;1062;52.538;13.400;2024-02-26T05:36:23;2.80;99.90
2112;DHT22;1062;52.538;13.400;2024-02-26T05:38:49;2.90;99.90
2112;DHT22;1062;52.538;13.400;2024-02-26T05:41:16;2.80;99.90
2112;DHT22;1062;52.538;13.400;2024-02-26T05:43:42;2.80;99.90
2112;DHT22;1062;52.538;13.400;2024-02-26T05:46:08;2.80;99.90
2112;DHT22;1062;52.538;13.400;2024-02-26T05:48:33;2.80;99.90
2112;DHT22;1062;52.538;13.400;2024-02-26T05:50:59;2.80;99.90
2112;DHT22;1062;52.538;13.400;2024-02-26T05:53:25;2.80;99.90
2112;DHT22;1062;52.538;13.400;2024-02-26T05:55:50;2.80;99.90
2112;DHT22;1062;52.538;13.400;2024-02-26T05:58:16;2.80;99.90
2112;DHT22;1062;52.538;13.400;2024-02-26T06:00:41;2.70;99.90
2112;DHT22;1062;52.538;13.400;2024-02-26T06:03:07;2.70;99.90
2112;DHT22;1062;52.538;13.400;2024-02-26T06:05:33;2.80;99.90
2112;DHT22;1062;52.538;13.400;2024-02-26T06:07:58;2.80;99.90
2112;DHT22;1062;52.538;13.400;2024-02-26T06:10:24;2.80;99.90
2112;DHT22;1062;52.538;13.400;2024-02-26T06:12:50;2.80;99.90
2112;DHT22;1062;52.538;13.400;2024-02-26T06:15:15;2.80;99.90
2112;DHT22;1062;52.538;13.400;2024-02-26T06:17:41;2.90;99.90
2112;DHT22;1062;52.538;13.400;2024-02-26T06:20:07;2.90;99.90
2112;DHT22;1062;52.538;13.400;2024-02-26T06:22:37;2.90;99.90
2112;DHT22;1062;52.538;13.400;2024-02-26T06:25:03;3.00;99.90
2112;DHT22;1062;52.538;13.400;2024-02-26T06:27:28;3.00;99.90
2112;DHT22;1062;52.538;13.400;2024-02-26T06:29:54;3.00;99.90
2112;DHT22;1062;52.538;13.400;2024-02-26T06:32:19;3.00;99.90
2112;DHT22;1062;52.538;13.400;2024-02-26T06:34:45;3.10;99.90
2112;DHT22;1062;52.538;13.400;2024-02-26T06:37:11;3.20;99.90
2112;DHT22;1062;52.538;13.400;2024-02-26T06:39:36;3.20;99.90
2112;DHT22;1062;52.538;13.400;2024-02-26T06:42:03;3.40;99.90
2112;DHT22;1062;52.538;13.400;2024-02-26T06:44:29;3.50;99.90
2112;DHT22;1062;52.538;13.400;2024-02-26T06:46:58;3.60;99.90
2112;DHT22;1062;52.538;13.400;2024-02-26T06:49:24;3.70;99.90
2112;DHT22;1062;52.538;13.400;2024-02-26T06:51:50;3.80;99.90
2112;DHT22;1062;52.538;13.400;2024-02-26T06:54:15;3.90;99.90
2112;DHT22;1062;52.538;13.400;2024-02-26T06:56:41;4.00;99.90
2112;DHT22;1062;52.538;13.400;2024-02-26T06:59:07;4.20;99.90
2112;DHT22;1062;52.538;13.400;2024-02-26T07:01:32;4.30;99.90
2112;DHT22;1062;52.538;13.400;2024-02-26T07:03:58;4.40;99.90
2112;DHT22;1062;52.538;13.400;2024-02-26T07:06:23;4.40;99.90
2112;DHT22;1062;52.538;13.400;2024-02-26T07:08:49;4.60;99.90
2112;DHT22;1062;52.538;13.400;2024-02-26T07:11:14;4.70;99.90
2112;DHT22;1062;52.538;13.400;2024-02-26T07:13:40;5.00;99.90
2112;DHT22;1062;52.538;13.400;2024-02-26T07:16:06;5.20;99.90
2112;DHT22;1062;52.538;13.400;2024-02-26T07:18:34;5.50;99.90
2112;DHT22;1062;52.538;13.400;2024-02-26T07:21:02;5.90;99.90
2112;DHT22;1062;52.538;13.400;2024-02-26T07:23:27;6.10;99.90
2112;DHT22;1062;52.538;13.400;2024-02-26T07:25:53;6.60;99.90
2112;DHT22;1062;52.538;13.400;2024-02-26T07:28:19;6.60;99.90
2112;DHT22;1062;52.538;13.400;2024-02-26T07:30:45;6.70;99.90
2112;DHT22;1062;52.538;13.400;2024-02-26T07:33:11;6.80;99.90
2112;DHT22;1062;52.538;13.400;2024-02-26T07:35:37;7.10;99.90
2112;DHT22;1062;52.538;13.400;2024-02-26T07:38:04;7.40;99.90
2112;DHT22;1062;52.538;13.400;2024-02-26T07:40:30;7.50;99.90
2112;DHT22;1062;52.538;13.400;2024-02-26T07:42:56;7.30;99.90
2112;DHT22;1062;52.538;13.400;2024-02-26T07:45:22;7.30;99.90
2112;DHT22;1062;52.538;13.400;2024-02-26T07:47:48;7.40;99.90
2112;DHT22;1062;52.538;13.400;2024-02-26T07:50:13;7.40;99.90
2112;DHT22;1062;52.538;13.400;2024-02-26T07:52:40;7.50;99.90
2112;DHT22;1062;52.538;13.400;2024-02-26T07:55:06;7.80;99.90
2112;DHT22;1062;52.538;13.400;2024-02-26T07:57:35;8.10;99.90
2112;DHT22;1062;52.538;13.400;2024-02-26T08:00:01;8.40;99.90
2112;DHT22;1062;52.538;13.400;2024-02-26T08:02:28;8.80;99.90
2112;DHT22;1062;52.538;13.400;2024-02-26T08:04:53;8.60;99.90
2112;DHT22;1062;52.538;13.400;2024-02-26T08:07:19;9.10;99.90
2112;DHT22;1062;52.538;13.400;2024-02-26T08:09:46;9.10;99.90
2112;DHT22;1062;52.538;13.400;2024-02-26T08:12:12;9.00;99.90
2112;DHT22;1062;52.538;13.400;2024-02-26T08:14:38;8.50;99.90
2112;DHT22;1062;52.538;13.400;2024-02-26T08:17:03;8.20;99.90
2112;DHT22;1062;52.538;13.400;2024-02-26T08:19:29;8.20;99.90
2112;DHT22;1062;52.538;13.400;2024-02-26T08:21:54;8.30;99.90
2112;DHT22;1062;52.538;13.400;2024-02-26T08:24:20;8.20;99.90
2112;DHT22;1062;52.538;13.400;2024-02-26T08:26:46;8.40;99.90
2112;DHT22;1062;52.538;13.400;2024-02-26T08:29:11;8.20;99.90
2112;DHT22;1062;52.538;13.400;2024-02-26T08:31:37;8.40;99.90
2112;DHT22;1062;52.538;13.400;2024-02-26T08:34:03;8.60;99.90
2112;DHT22;1062;52.538;13.400;2024-02-26T08:36:31;9.10;99.90
2112;DHT22;1062;52.538;13.400;2024-02-26T08:38:57;9.60;99.90
2112;DHT22;1062;52.538;13.400;2024-02-26T08:41:22;9.60;99.90
2112;DHT22;1062;52.538;13.400;2024-02-26T08:43:48;10.20;99.90
2112;DHT22;1062;52.538;13.400;2024-02-26T08:46:13;10.00;99.90
2112;DHT22;1062;52.538;13.400;2024-02-26T08:48:40;10.60;99.90
2112;DHT22;1062;52.538;13.400;2024-02-26T08:51:07;10.80;99.90
2112;DHT22;1062;52.538;13.400;2024-02-26T08:53:33;10.90;99.90
2112;DHT22;1062;52.538;13.400;2024-02-26T08:55:58;10.80;99.90
2112;DHT22;1062;52.538;13.400;2024-02-26T08:58:24;11.20;99.90
2112;DHT22;1062;52.538;13.400;2024-02-26T09:00:49;11.20;99.90
2112;DHT22;1062;52.538;13.400;2024-02-26T09:03:16;11.30;99.90
2112;DHT22;1062;52.538;13.400;2024-02-26T09:05:41;11.00;99.90
2112;DHT22;1062;52.538;13.400;2024-02-26T09:08:07;11.40;99.90
2112;DHT22;1062;52.538;13.400;2024-02-26T09:10:33;11.90;99.90
2112;DHT22;1062;52.538;13.400;2024-02-26T09:12:58;12.30;99.90
2112;DHT22;1062;52.538;13.400;2024-02-26T09:15:24;13.10;99.90
2112;DHT22;1062;52.538;13.400;2024-02-26T09:17:50;13.60;99.90
2112;DHT22;1062;52.538;13.400;2024-02-26T09:20:16;13.90;99.90
2112;DHT22;1062;52.538;13.400;2024-02-26T09:22:46;14.00;99.90
2112;DHT22;1062;52.538;13.400;2024-02-26T09:25:12;13.40;99.90
2112;DHT22;1062;52.538;13.400;2024-02-26T09:27:38;13.10;99.90
2112;DHT22;1062;52.538;13.400;2024-02-26T09:30:04;13.10;99.90
2112;DHT22;1062;52.538;13.400;2024-02-26T09:32:30;12.90;99.90
2112;DHT22;1062;52.538;13.400;2024-02-26T09:34:56;12.10;99.90
2112;DHT22;1062;52.538;13.400;2024-02-26T09:37:21;12.10;99.90
2112;DHT22;1062;52.538;13.400;2024-02-26T09:39:47;12.10;99.90
2112;DHT22;1062;52.538;13.400;2024-02-26T09:42:13;12.00;99.90
2112;DHT22;1062;52.538;13.400;2024-02-26T09:44:40;11.00;99.90
2112;DHT22;1062;52.538;13.400;2024-02-26T09:47:09;11.20;99.90
2112;DHT22;1062;52.538;13.400;2024-02-26T09:49:36;11.00;99.90
2112;DHT22;1062;52.538;13.400;2024-02-26T09:52:04;10.70;99.90
2112;DHT22;1062;52.538;13.400;2024-02-26T09:54:31;11.20;99.90
2112;DHT22;1062;52.538;13.400;2024-02-26T09:56:59;11.60;99.90
2112;DHT22;1062;52.538;13.400;2024-02-26T09:59:26;11.40;99.90
2112;DHT22;1062;52.538;13.400;2024-02-26T10:01:53;11.40;99.90
2112;DHT22;1062;52.538;13.400;2024-02-26T10:04:20;11.30;99.90
2112;DHT22;1062;52.538;13.400;2024-02-26T10:06:46;11.20;99.90
2112;DHT22;1062;52.538;13.400;2024-02-26T10:09:12;11.00;99.90
2112;DHT22;1062;52.538;13.400;2024-02-26T10:11:38;11.00;99.90
2112;DHT22;1062;52.538;13.400;2024-02-26T10:14:05;10.90;99.90
2112;DHT22;1062;52.538;13.400;2024-02-26T10:16:32;10.70;99.90
2112;DHT22;1062;52.538;13.400;2024-02-26T10:18:58;10.70;99.90
2112;DHT22;1062;52.538;13.400;2024-02-26T10:21:24;10.70;99.90
2112;DHT22;1062;52.538;13.400;2024-02-26T10:23:50;10.60;99.90
2112;DHT22;1062;52.538;13.400;2024-02-26T10:26:19;10.60;99.90
2112;DHT22;1062;52.538;13.400;2024-02-26T10:28:45;10.60;99.90
2112;DHT22;1062;52.538;13.400;2024-02-26T10:31:11;10.60;99.90
2112;DHT22;1062;52.538;13.400;2024-02-26T10:33:40;10.50;99.90
2112;DHT22;1062;52.538;13.400;2024-02-26T10:36:07;10.70;99.90
2112;DHT22;1062;52.538;13.400;2024-02-26T10:38:37;10.80;99.90
2112;DHT22;1062;52.538;13.400;2024-02-26T10:41:06;10.80;99.90
2112;DHT22;1062;52.538;13.400;2024-02-26T10:43:32;10.80;99.90
2112;DHT22;1062;52.538;13.400;2024-02-26T10:45:58;10.90;99.90
2112;DHT22;1062;52.538;13.400;2024-02-26T10:48:24;11.00;99.90
2112;DHT22;1062;52.538;13.400;2024-02-26T10:50:49;11.00;99.90
2112;DHT22;1062;52.538;13.400;2024-02-26T10:53:28;11.00;99.90
2112;DHT22;1062;52.538;13.400;2024-02-26T10:56:02;11.00;99.90
2112;DHT22;1062;52.538;13.400;2024-02-26T10:58:28;11.10;99.90
2112;DHT22;1062;52.538;13.400;2024-02-26T11:00:55;11.20;99.90
2112;DHT22;1062;52.538;13.400;2024-02-26T11:03:22;11.00;99.90
2112;DHT22;1062;52.538;13.400;2024-02-26T11:05:49;11.00;99.90
2112;DHT22;1062;52.538;13.400;2024-02-26T11:08:17;11.20;99.90
2112;DHT22;1062;52.538;13.400;2024-02-26T11:10:43;11.10;99.90
2112;DHT22;1062;52.538;13.400;2024-02-26T11:13:14;11.30;99.90
2112;DHT22;1062;52.538;13.400;2024-02-26T11:15:40;11.10;99.90
2112;DHT22;1062;52.538;13.400;2024-02-26T11:18:07;11.20;99.90
2112;DHT22;1062;52.538;13.400;2024-02-26T11:20:34;11.40;99.90
2112;DHT22;1062;52.538;13.400;2024-02-26T11:23:03;11.40;99.90
2112;DHT22;1062;52.538;13.400;2024-02-26T11:25:29;11.40;99.90
2112;DHT22;1062;52.538;13.400;2024-02-26T11:27:58;11.50;99.90
2112;DHT22;1062;52.538;13.400;2024-02-26T11:30:30;11.50;99.90
2112;DHT22;1062;52.538;13.400;2024-02-26T11:32:56;11.60;99.90
2112;DHT22;1062;52.538;13.400;2024-02-26T11:35:23;11.50;99.90
2112;DHT22;1062;52.538;13.400;2024-02-26T11:37:56;11.50;99.90
2112;DHT22;1062;52.538;13.400;2024-02-26T11:40:24;11.50;99.90
2112;DHT22;1062;52.538;13.400;2024-02-26T11:42:50;11.50;99.90
2112;DHT22;1062;52.538;13.400;2024-02-26T11:48:14;11.40;99.90
2112;DHT22;1062;52.538;13.400;2024-02-26T11:50:47;11.50;99.90
2112;DHT22;1062;52.538;13.400;2024-02-26T11:53:31;11.50;99.90
2112;DHT22;1062;52.538;13.400;2024-02-26T11:59:11;11.40;99.90
2112;DHT22;1062;52.538;13.400;2024-02-26T12:01:48;11.50;99.90
2112;DHT22;1062;52.538;13.400;2024-02-26T12:04:18;11.40;99.90
2112;DHT22;1062;52.538;13.400;2024-02-26T12:06:53;11.30;99.90
2112;DHT22;1062;52.538;13.400;2024-02-26T12:09:40;11.30;99.90
2112;DHT22;1062;52.538;13.400;2024-02-26T12:12:12;11.30;99.90
2112;DHT22;1062;52.538;13.400;2024-02-26T12:14:40;11.30;99.90
2112;DHT22;1062;52.538;13.400;2024-02-26T12:17:07;11.40;99.90
2112;DHT22;1062;52.538;13.400;2024-02-26T12:19:44;11.40;99.90
2112;DHT22;1062;52.538;13.400;2024-02-26T12:22:13;11.60;99.90
2112;DHT22;1062;52.538;13.400;2024-02-26T12:24:38;11.60;99.90
2112;DHT22;1062;52.538;13.400;2024-02-26T12:27:04;11.70;99.90
2112;DHT22;1062;52.538;13.400;2024-02-26T12:29:29;11.70;99.90
2112;DHT22;1062;52.538;13.400;2024-02-26T12:31:55;11.70;99.90
2112;DHT22;1062;52.538;13.400;2024-02-26T12:34:21;11.70;99.90
2112;DHT22;1062;52.538;13.400;2024-02-26T12:36:47;11.90;99.90
2112;DHT22;1062;52.538;13.400;2024-02-26T12:39:13;12.00;99.90
2112;DHT22;1062;52.538;13.400;2024-02-26T12:41:39;12.10;99.90
2112;DHT22;1062;52.538;13.400;2024-02-26T12:44:05;12.10;99.90
2112;DHT22;1062;52.538;13.400;2024-02-26T12:46:33;12.10;99.90
2112;DHT22;1062;52.538;13.400;2024-02-26T12:48:58;12.10;99.90
2112;DHT22;1062;52.538;13.400;2024-02-26T12:51:25;12.10;99.90
2112;DHT22;1062;52.538;13.400;2024-02-26T12:53:52;12.10;99.90
2112;DHT22;1062;52.538;13.400;2024-02-26T12:56:18;12.10;99.90
2112;DHT22;1062;52.538;13.400;2024-02-26T12:58:45;12.00;99.90
2112;DHT22;1062;52.538;13.400;2024-02-26T13:01:14;12.10;99.90
2112;DHT22;1062;52.538;13.400;2024-02-26T13:03:41;12.10;99.90
2112;DHT22;1062;52.538;13.400;2024-02-26T13:06:07;12.10;99.90
2112;DHT22;1062;52.538;13.400;2024-02-26T13:08:33;12.00;99.90
2112;DHT22;1062;52.538;13.400;2024-02-26T13:11:00;12.10;99.90
2112;DHT22;1062;52.538;13.400;2024-02-26T13:13:26;12.10;99.90
2112;DHT22;1062;52.538;13.400;2024-02-26T13:16:02;12.10;99.90
2112;DHT22;1062;52.538;13.400;2024-02-26T13:18:29;12.10;99.90
2112;DHT22;1062;52.538;13.400;2024-02-26T13:23:38;12.10;99.90
2112;DHT22;1062;52.538;13.400;2024-02-26T13:26:04;12.10;99.90
2112;DHT22;1062;52.538;13.400;2024-02-26T13:28:30;12.10;99.90
2112;DHT22;1062;52.538;13.400;2024-02-26T13:30:57;12.00;99.90
2112;DHT22;1062;52.538;13.400;2024-02-26T13:33:23;12.00;99.90
2112;DHT22;1062;52.538;13.400;2024-02-26T13:35:50;12.00;99.90
2112;DHT22;1062;52.538;13.400;2024-02-26T13:38:15;12.00;99.90
2112;DHT22;1062;52.538;13.400;2024-02-26T13:40:41;12.00;99.90
2112;DHT22;1062;52.538;13.400;2024-02-26T13:43:07;12.10;99.90
2112;DHT22;1062;52.538;13.400;2024-02-26T13:45:37;12.10;99.90
2112;DHT22;1062;52.538;13.400;2024-02-26T13:48:04;12.00;99.90
2112;DHT22;1062;52.538;13.400;2024-02-26T13:50:30;12.00;99.90
2112;DHT22;1062;52.538;13.400;2024-02-26T13:52:56;12.00;99.90
2112;DHT22;1062;52.538;13.400;2024-02-26T13:55:23;12.00;99.90
2112;DHT22;1062;52.538;13.400;2024-02-26T13:57:52;11.90;99.90
2112;DHT22;1062;52.538;13.400;2024-02-26T14:00:19;12.00;99.90
2112;DHT22;1062;52.538;13.400;2024-02-26T14:02:45;12.00;99.90
2112;DHT22;1062;52.538;13.400;2024-02-26T14:05:11;12.00;99.90
2112;DHT22;1062;52.538;13.400;2024-02-26T14:07:36;11.90;99.90
2112;DHT22;1062;52.538;13.400;2024-02-26T14:10:02;11.90;99.90
2112;DHT22;1062;52.538;13.400;2024-02-26T14:12:28;11.90;99.90
2112;DHT22;1062;52.538;13.400;2024-02-26T14:14:54;11.90;99.90
2112;DHT22;1062;52.538;13.400;2024-02-26T14:17:21;11.90;99.90
2112;DHT22;1062;52.538;13.400;2024-02-26T14:19:47;11.80;99.90
2112;DHT22;1062;52.538;13.400;2024-02-26T14:22:14;11.80;99.90
2112;DHT22;1062;52.538;13.400;2024-02-26T14:24:41;11.90;99.90
2112;DHT22;1062;52.538;13.400;2024-02-26T14:27:12;11.90;99.90
2112;DHT22;1062;52.538;13.400;2024-02-26T14:29:41;11.80;99.90
2112;DHT22;1062;52.538;13.400;2024-02-26T14:32:08;11.80;99.90
2112;DHT22;1062;52.538;13.400;2024-02-26T14:34:34;11.70;99.90
2112;DHT22;1062;52.538;13.400;2024-02-26T14:36:59;11.70;99.90
2112;DHT22;1062;52.538;13.400;2024-02-26T14:39:25;11.70;99.90
2112;DHT22;1062;52.538;13.400;2024-02-26T14:41:51;11.70;99.90
2112;DHT22;1062;52.538;13.400;2024-02-26T14:44:17;11.70;99.90
2112;DHT22;1062;52.538;13.400;2024-02-26T14:46:42;11.70;99.90
2112;DHT22;1062;52.538;13.400;2024-02-26T14:49:08;11.60;99.90
2112;DHT22;1062;52.538;13.400;2024-02-26T14:51:34;11.60;99.90
2112;DHT22;1062;52.538;13.400;2024-02-26T14:54:00;11.50;99.90
2112;DHT22;1062;52.538;13.400;2024-02-26T14:56:27;11.50;99.90
2112;DHT22;1062;52.538;13.400;2024-02-26T14:58:53;11.40;99.90
2112;DHT22;1062;52.538;13.400;2024-02-26T15:01:18;11.30;99.90
2112;DHT22;1062;52.538;13.400;2024-02-26T15:03:44;11.30;99.90
2112;DHT22;1062;52.538;13.400;2024-02-26T15:06:09;11.30;99.90
2112;DHT22;1062;52.538;13.400;2024-02-26T15:08:35;11.20;99.90
2112;DHT22;1062;52.538;13.400;2024-02-26T15:11:01;11.30;99.90
2112;DHT22;1062;52.538;13.400;2024-02-26T15:13:27;11.20;99.90
2112;DHT22;1062;52.538;13.400;2024-02-26T15:15:52;11.10;99.90
2112;DHT22;1062;52.538;13.400;2024-02-26T15:18:18;11.10;99.90
2112;DHT22;1062;52.538;13.400;2024-02-26T15:20:44;11.10;99.90
2112;DHT22;1062;52.538;13.400;2024-02-26T15:23:11;11.10;99.90
2112;DHT22;1062;52.538;13.400;2024-02-26T15:25:37;11.00;99.90
2112;DHT22;1062;52.538;13.400;2024-02-26T15:28:03;11.00;99.90
2112;DHT22;1062;52.538;13.400;2024-02-26T15:30:29;11.00;99.90
2112;DHT22;1062;52.538;13.400;2024-02-26T15:32:55;10.90;99.90
2112;DHT22;1062;52.538;13.400;2024-02-26T15:35:21;10.90;99.90
2112;DHT22;1062;52.538;13.400;2024-02-26T15:37:47;10.90;99.90
2112;DHT22;1062;52.538;13.400;2024-02-26T15:40:12;10.90;99.90
2112;DHT22;1062;52.538;13.400;2024-02-26T15:42:38;10.80;99.90
2112;DHT22;1062;52.538;13.400;2024-02-26T15:45:04;10.80;99.90
2112;DHT22;1062;52.538;13.400;2024-02-26T15:47:30;10.80;99.90
2112;DHT22;1062;52.538;13.400;2024-02-26T15:49:56;10.80;99.90
2112;DHT22;1062;52.538;13.400;2024-02-26T15:52:22;10.70;99.90
2112;DHT22;1062;52.538;13.400;2024-02-26T15:54:47;10.60;99.90
2112;DHT22;1062;52.538;13.400;2024-02-26T15:57:13;10.70;99.90